Bhiwandi, India
Current Conditions -  °F | °C
As of 7:10 AM on Thursday 23 Oct 2014 (Local Time) from VABB Reporting Station
Smoke Smoke  
Wind Chill: 82°   Ceiling: Unl
Heat Index: 84°   Visibility: 1.8mi
Dew Point: 64°   Wind: 7mph
Humidity: 54%   Direction: 130°SE
Pressure: 29.88"   Gusts: NA
Location:  19.3°N, 73.05°E
Report Text: VABB 230210Z 13006KT 3000 FU NSC 28/18 Q1012 NOSIG
Loading
Personal Weather Stations






























Interactive Weather Map
Tropical Storm Tracking
New forecast layout! Learn more

10-Day Weather Forecast

Advertisements
Track Severe Weather on mobile